sensor_id;sensor_type;location;lat;lon;timestamp;temperature;humidity
610;DHT22;292;48.800;9.216;2023-12-28T00:02:18;8.80;60.40
610;DHT22;292;48.800;9.216;2023-12-28T00:04:45;8.80;60.50
610;DHT22;292;48.800;9.216;2023-12-28T00:07:11;8.80;60.20
610;DHT22;292;48.800;9.216;2023-12-28T00:09:39;8.80;60.20
610;DHT22;292;48.800;9.216;2023-12-28T00:12:06;8.80;60.40
610;DHT22;292;48.800;9.216;2023-12-28T00:14:34;8.80;60.40
610;DHT22;292;48.800;9.216;2023-12-28T00:17:01;8.80;60.50
610;DHT22;292;48.800;9.216;2023-12-28T00:19:28;8.70;60.50
610;DHT22;292;48.800;9.216;2023-12-28T00:21:55;8.70;60.70
610;DHT22;292;48.800;9.216;2023-12-28T00:24:22;8.60;60.80
610;DHT22;292;48.800;9.216;2023-12-28T00:26:49;8.70;60.70
610;DHT22;292;48.800;9.216;2023-12-28T00:29:16;8.70;60.70
610;DHT22;292;48.800;9.216;2023-12-28T00:31:45;8.70;60.40
610;DHT22;292;48.800;9.216;2023-12-28T00:34:12;8.70;60.00
610;DHT22;292;48.800;9.216;2023-12-28T00:36:39;8.70;59.80
610;DHT22;292;48.800;9.216;2023-12-28T00:39:06;8.70;59.80
610;DHT22;292;48.800;9.216;2023-12-28T00:41:34;8.70;59.60
610;DHT22;292;48.800;9.216;2023-12-28T00:44:01;8.70;59.60
610;DHT22;292;48.800;9.216;2023-12-28T00:46:28;8.70;59.70
610;DHT22;292;48.800;9.216;2023-12-28T00:48:57;8.70;59.60
610;DHT22;292;48.800;9.216;2023-12-28T00:51:24;8.70;59.20
610;DHT22;292;48.800;9.216;2023-12-28T00:53:51;8.80;59.00
610;DHT22;292;48.800;9.216;2023-12-28T00:56:18;8.80;58.90
610;DHT22;292;48.800;9.216;2023-12-28T00:58:46;8.80;58.80
610;DHT22;292;48.800;9.216;2023-12-28T01:01:13;8.70;58.80
610;DHT22;292;48.800;9.216;2023-12-28T01:03:40;8.70;58.80
610;DHT22;292;48.800;9.216;2023-12-28T01:06:08;8.60;58.80
610;DHT22;292;48.800;9.216;2023-12-28T01:08:35;8.60;58.80
610;DHT22;292;48.800;9.216;2023-12-28T01:11:02;8.60;58.90
610;DHT22;292;48.800;9.216;2023-12-28T01:13:29;8.50;58.90
610;DHT22;292;48.800;9.216;2023-12-28T01:15:57;8.40;59.00
610;DHT22;292;48.800;9.216;2023-12-28T01:18:24;8.30;59.20
610;DHT22;292;48.800;9.216;2023-12-28T01:20:51;8.30;59.40
610;DHT22;292;48.800;9.216;2023-12-28T01:23:19;8.20;59.70
610;DHT22;292;48.800;9.216;2023-12-28T01:25:46;8.10;60.20
610;DHT22;292;48.800;9.216;2023-12-28T01:28:13;8.00;60.50
610;DHT22;292;48.800;9.216;2023-12-28T01:30:40;8.00;60.80
610;DHT22;292;48.800;9.216;2023-12-28T01:33:07;7.90;61.20
610;DHT22;292;48.800;9.216;2023-12-28T01:35:34;7.90;61.50
610;DHT22;292;48.800;9.216;2023-12-28T01:38:01;7.80;61.80
610;DHT22;292;48.800;9.216;2023-12-28T01:40:30;7.70;62.00
610;DHT22;292;48.800;9.216;2023-12-28T01:42:57;7.70;62.30
610;DHT22;292;48.800;9.216;2023-12-28T01:45:24;7.70;62.50
610;DHT22;292;48.800;9.216;2023-12-28T01:47:53;7.60;62.70
610;DHT22;292;48.800;9.216;2023-12-28T01:50:20;7.60;62.70
610;DHT22;292;48.800;9.216;2023-12-28T01:52:49;7.60;62.80
610;DHT22;292;48.800;9.216;2023-12-28T01:55:16;7.70;63.00
610;DHT22;292;48.800;9.216;2023-12-28T01:57:47;7.70;62.80
610;DHT22;292;48.800;9.216;2023-12-28T02:00:15;7.70;62.80
610;DHT22;292;48.800;9.216;2023-12-28T02:02:42;7.70;62.80
610;DHT22;292;48.800;9.216;2023-12-28T02:05:11;7.70;63.00
610;DHT22;292;48.800;9.216;2023-12-28T02:07:38;7.60;63.00
610;DHT22;292;48.800;9.216;2023-12-28T02:10:06;7.70;63.00
610;DHT22;292;48.800;9.216;2023-12-28T02:12:33;7.70;63.00
610;DHT22;292;48.800;9.216;2023-12-28T02:15:02;7.70;63.10
610;DHT22;292;48.800;9.216;2023-12-28T02:17:33;7.70;63.10
610;DHT22;292;48.800;9.216;2023-12-28T02:20:04;7.70;63.30
610;DHT22;292;48.800;9.216;2023-12-28T02:22:34;7.60;63.30
610;DHT22;292;48.800;9.216;2023-12-28T02:25:10;7.60;63.30
610;DHT22;292;48.800;9.216;2023-12-28T02:27:39;7.60;63.30
610;DHT22;292;48.800;9.216;2023-12-28T02:30:06;7.70;63.10
610;DHT22;292;48.800;9.216;2023-12-28T02:32:42;7.60;63.10
610;DHT22;292;48.800;9.216;2023-12-28T02:35:17;7.60;63.30
610;DHT22;292;48.800;9.216;2023-12-28T02:37:49;7.60;63.30
610;DHT22;292;48.800;9.216;2023-12-28T02:40:19;7.60;63.40
610;DHT22;292;48.800;9.216;2023-12-28T02:42:47;7.60;63.70
610;DHT22;292;48.800;9.216;2023-12-28T02:45:14;7.60;63.80
610;DHT22;292;48.800;9.216;2023-12-28T02:47:41;7.50;63.80
610;DHT22;292;48.800;9.216;2023-12-28T02:50:09;7.50;63.80
610;DHT22;292;48.800;9.216;2023-12-28T02:52:36;7.50;63.60
610;DHT22;292;48.800;9.216;2023-12-28T02:55:04;7.50;63.70
610;DHT22;292;48.800;9.216;2023-12-28T02:57:33;7.50;63.80
610;DHT22;292;48.800;9.216;2023-12-28T03:00:04;7.50;63.80
610;DHT22;292;48.800;9.216;2023-12-28T03:02:31;7.40;63.80
610;DHT22;292;48.800;9.216;2023-12-28T03:04:58;7.50;63.80
610;DHT22;292;48.800;9.216;2023-12-28T03:07:25;7.40;63.60
610;DHT22;292;48.800;9.216;2023-12-28T03:09:52;7.30;63.60
610;DHT22;292;48.800;9.216;2023-12-28T03:12:19;7.30;63.60
610;DHT22;292;48.800;9.216;2023-12-28T03:14:48;7.30;63.70
610;DHT22;292;48.800;9.216;2023-12-28T03:17:15;7.20;63.70
610;DHT22;292;48.800;9.216;2023-12-28T03:19:42;7.20;63.80
610;DHT22;292;48.800;9.216;2023-12-28T03:22:09;7.20;63.70
610;DHT22;292;48.800;9.216;2023-12-28T03:24:36;7.20;63.70
610;DHT22;292;48.800;9.216;2023-12-28T03:27:04;7.20;63.60
610;DHT22;292;48.800;9.216;2023-12-28T03:29:31;7.10;63.40
610;DHT22;292;48.800;9.216;2023-12-28T03:32:01;7.10;63.60
610;DHT22;292;48.800;9.216;2023-12-28T03:34:28;7.10;63.60
610;DHT22;292;48.800;9.216;2023-12-28T03:36:55;7.10;63.70
610;DHT22;292;48.800;9.216;2023-12-28T03:39:23;7.00;63.70
610;DHT22;292;48.800;9.216;2023-12-28T03:41:50;7.00;64.00
610;DHT22;292;48.800;9.216;2023-12-28T03:44:18;6.90;64.30
610;DHT22;292;48.800;9.216;2023-12-28T03:46:46;6.90;64.40
610;DHT22;292;48.800;9.216;2023-12-28T03:49:16;6.90;64.60
610;DHT22;292;48.800;9.216;2023-12-28T03:51:43;6.80;64.70
610;DHT22;292;48.800;9.216;2023-12-28T03:54:10;6.80;64.90
610;DHT22;292;48.800;9.216;2023-12-28T03:56:37;6.70;65.10
610;DHT22;292;48.800;9.216;2023-12-28T03:59:05;6.70;65.30
610;DHT22;292;48.800;9.216;2023-12-28T04:01:32;6.70;65.40
610;DHT22;292;48.800;9.216;2023-12-28T04:03:59;6.70;65.60
610;DHT22;292;48.800;9.216;2023-12-28T04:06:28;6.70;65.70
610;DHT22;292;48.800;9.216;2023-12-28T04:08:55;6.70;65.70
610;DHT22;292;48.800;9.216;2023-12-28T04:11:22;6.60;65.90
610;DHT22;292;48.800;9.216;2023-12-28T04:13:49;6.60;66.00
610;DHT22;292;48.800;9.216;2023-12-28T04:16:16;6.50;66.20
610;DHT22;292;48.800;9.216;2023-12-28T04:18:44;6.50;66.30
610;DHT22;292;48.800;9.216;2023-12-28T04:21:12;6.50;66.40
610;DHT22;292;48.800;9.216;2023-12-28T04:23:41;6.60;66.40
610;DHT22;292;48.800;9.216;2023-12-28T04:26:08;6.60;66.40
610;DHT22;292;48.800;9.216;2023-12-28T04:28:35;6.60;66.30
610;DHT22;292;48.800;9.216;2023-12-28T04:31:03;6.70;66.00
610;DHT22;292;48.800;9.216;2023-12-28T04:33:30;6.70;65.90
610;DHT22;292;48.800;9.216;2023-12-28T04:36:00;6.70;65.60
610;DHT22;292;48.800;9.216;2023-12-28T04:38:27;6.80;65.40
610;DHT22;292;48.800;9.216;2023-12-28T04:40:55;6.80;65.30
610;DHT22;292;48.800;9.216;2023-12-28T04:43:22;6.80;65.00
610;DHT22;292;48.800;9.216;2023-12-28T04:45:50;6.80;64.90
610;DHT22;292;48.800;9.216;2023-12-28T04:48:17;6.80;64.90
610;DHT22;292;48.800;9.216;2023-12-28T04:50:46;6.80;64.60
610;DHT22;292;48.800;9.216;2023-12-28T04:53:14;6.80;64.70
610;DHT22;292;48.800;9.216;2023-12-28T04:55:41;6.80;64.90
610;DHT22;292;48.800;9.216;2023-12-28T04:58:10;6.90;64.90
610;DHT22;292;48.800;9.216;2023-12-28T05:00:37;6.90;64.90
610;DHT22;292;48.800;9.216;2023-12-28T05:03:04;6.90;64.90
610;DHT22;292;48.800;9.216;2023-12-28T05:05:31;6.90;64.90
610;DHT22;292;48.800;9.216;2023-12-28T05:07:58;6.90;65.00
610;DHT22;292;48.800;9.216;2023-12-28T05:10:25;6.90;65.00
610;DHT22;292;48.800;9.216;2023-12-28T05:12:53;6.90;65.10
610;DHT22;292;48.800;9.216;2023-12-28T05:15:21;6.90;65.10
610;DHT22;292;48.800;9.216;2023-12-28T05:17:48;6.90;65.10
610;DHT22;292;48.800;9.216;2023-12-28T05:20:16;6.90;65.10
610;DHT22;292;48.800;9.216;2023-12-28T05:22:43;7.00;65.00
610;DHT22;292;48.800;9.216;2023-12-28T05:25:10;7.00;65.00
610;DHT22;292;48.800;9.216;2023-12-28T05:27:37;7.00;65.10
610;DHT22;292;48.800;9.216;2023-12-28T05:30:06;7.00;65.00
610;DHT22;292;48.800;9.216;2023-12-28T05:32:35;7.10;65.00
610;DHT22;292;48.800;9.216;2023-12-28T05:35:02;7.10;65.00
610;DHT22;292;48.800;9.216;2023-12-28T05:37:30;7.10;65.00
610;DHT22;292;48.800;9.216;2023-12-28T05:39:57;7.20;64.90
610;DHT22;292;48.800;9.216;2023-12-28T05:42:24;7.20;64.70
610;DHT22;292;48.800;9.216;2023-12-28T05:44:51;7.20;64.90
610;DHT22;292;48.800;9.216;2023-12-28T05:47:18;7.20;64.70
610;DHT22;292;48.800;9.216;2023-12-28T05:49:47;7.30;64.70
610;DHT22;292;48.800;9.216;2023-12-28T05:52:14;7.30;64.90
610;DHT22;292;48.800;9.216;2023-12-28T05:54:44;7.40;64.70
610;DHT22;292;48.800;9.216;2023-12-28T05:57:11;7.40;64.70
610;DHT22;292;48.800;9.216;2023-12-28T05:59:38;7.50;64.70
610;DHT22;292;48.800;9.216;2023-12-28T06:02:06;7.50;64.60
610;DHT22;292;48.800;9.216;2023-12-28T06:04:33;7.60;64.40
610;DHT22;292;48.800;9.216;2023-12-28T06:07:04;7.60;64.30
610;DHT22;292;48.800;9.216;2023-12-28T06:09:31;7.70;64.30
610;DHT22;292;48.800;9.216;2023-12-28T06:11:58;7.70;64.10
610;DHT22;292;48.800;9.216;2023-12-28T06:14:25;7.70;64.10
610;DHT22;292;48.800;9.216;2023-12-28T06:16:52;7.80;64.10
610;DHT22;292;48.800;9.216;2023-12-28T06:19:19;7.80;64.10
610;DHT22;292;48.800;9.216;2023-12-28T06:21:47;7.90;64.30
610;DHT22;292;48.800;9.216;2023-12-28T06:24:15;7.90;64.30
610;DHT22;292;48.800;9.216;2023-12-28T06:26:42;7.90;64.30
610;DHT22;292;48.800;9.216;2023-12-28T06:29:10;7.90;64.60
610;DHT22;292;48.800;9.216;2023-12-28T06:31:40;8.00;64.60
610;DHT22;292;48.800;9.216;2023-12-28T06:34:07;8.00;64.70
610;DHT22;292;48.800;9.216;2023-12-28T06:36:34;8.00;64.70
610;DHT22;292;48.800;9.216;2023-12-28T06:39:02;8.00;64.70
610;DHT22;292;48.800;9.216;2023-12-28T06:41:30;8.10;64.70
610;DHT22;292;48.800;9.216;2023-12-28T06:43:58;8.10;64.30
610;DHT22;292;48.800;9.216;2023-12-28T06:46:25;8.10;64.10
610;DHT22;292;48.800;9.216;2023-12-28T06:48:53;8.10;64.00
610;DHT22;292;48.800;9.216;2023-12-28T06:51:21;8.20;64.00
610;DHT22;292;48.800;9.216;2023-12-28T06:53:48;8.20;63.80
610;DHT22;292;48.800;9.216;2023-12-28T06:56:15;8.20;63.80
610;DHT22;292;48.800;9.216;2023-12-28T06:58:44;8.30;63.70
610;DHT22;292;48.800;9.216;2023-12-28T07:01:11;8.30;63.70
610;DHT22;292;48.800;9.216;2023-12-28T07:03:38;8.30;63.70
610;DHT22;292;48.800;9.216;2023-12-28T07:06:05;8.40;63.70
610;DHT22;292;48.800;9.216;2023-12-28T07:08:32;8.40;63.60
610;DHT22;292;48.800;9.216;2023-12-28T07:10:59;8.40;63.40
610;DHT22;292;48.800;9.216;2023-12-28T07:13:26;8.40;63.40
610;DHT22;292;48.800;9.216;2023-12-28T07:15:55;8.50;63.60
610;DHT22;292;48.800;9.216;2023-12-28T07:18:22;8.50;63.40
610;DHT22;292;48.800;9.216;2023-12-28T07:20:49;8.60;63.30
610;DHT22;292;48.800;9.216;2023-12-28T07:23:16;8.60;63.30
610;DHT22;292;48.800;9.216;2023-12-28T07:25:43;8.60;63.30
610;DHT22;292;48.800;9.216;2023-12-28T07:28:10;8.70;63.30
610;DHT22;292;48.800;9.216;2023-12-28T07:30:37;8.70;63.10
610;DHT22;292;48.800;9.216;2023-12-28T07:33:06;8.80;63.10
610;DHT22;292;48.800;9.216;2023-12-28T07:35:33;8.80;63.30
610;DHT22;292;48.800;9.216;2023-12-28T07:38:00;8.80;63.30
610;DHT22;292;48.800;9.216;2023-12-28T07:40:28;8.90;63.30
610;DHT22;292;48.800;9.216;2023-12-28T07:42:54;8.90;63.30
610;DHT22;292;48.800;9.216;2023-12-28T07:45:22;8.90;63.30
610;DHT22;292;48.800;9.216;2023-12-28T07:47:50;9.00;63.30
610;DHT22;292;48.800;9.216;2023-12-28T07:50:19;9.00;63.30
610;DHT22;292;48.800;9.216;2023-12-28T07:52:46;9.00;63.30
610;DHT22;292;48.800;9.216;2023-12-28T07:55:13;9.10;63.40
610;DHT22;292;48.800;9.216;2023-12-28T07:57:40;9.10;63.60
610;DHT22;292;48.800;9.216;2023-12-28T08:00:08;9.10;63.60
610;DHT22;292;48.800;9.216;2023-12-28T08:02:35;9.10;63.70
610;DHT22;292;48.800;9.216;2023-12-28T08:05:03;9.20;63.70
610;DHT22;292;48.800;9.216;2023-12-28T08:07:31;9.20;63.70
610;DHT22;292;48.800;9.216;2023-12-28T08:09:58;9.20;63.60
610;DHT22;292;48.800;9.216;2023-12-28T08:12:25;9.20;63.40
610;DHT22;292;48.800;9.216;2023-12-28T08:14:54;9.30;63.80
610;DHT22;292;48.800;9.216;2023-12-28T08:17:21;9.30;63.80
610;DHT22;292;48.800;9.216;2023-12-28T08:19:48;9.30;64.00
610;DHT22;292;48.800;9.216;2023-12-28T08:22:15;9.40;64.00
610;DHT22;292;48.800;9.216;2023-12-28T08:24:44;9.40;63.60
610;DHT22;292;48.800;9.216;2023-12-28T08:27:11;9.40;63.60
610;DHT22;292;48.800;9.216;2023-12-28T08:29:39;9.40;63.10
610;DHT22;292;48.800;9.216;2023-12-28T08:32:07;9.40;63.00
610;DHT22;292;48.800;9.216;2023-12-28T08:34:34;9.40;63.10
610;DHT22;292;48.800;9.216;2023-12-28T08:37:01;9.40;63.10
610;DHT22;292;48.800;9.216;2023-12-28T08:39:29;9.40;63.10
610;DHT22;292;48.800;9.216;2023-12-28T08:41:57;9.40;63.10
610;DHT22;292;48.800;9.216;2023-12-28T08:44:24;9.40;63.10
610;DHT22;292;48.800;9.216;2023-12-28T08:46:52;9.40;63.10
610;DHT22;292;48.800;9.216;2023-12-28T08:49:19;9.40;63.10
610;DHT22;292;48.800;9.216;2023-12-28T08:51:48;9.40;63.10
610;DHT22;292;48.800;9.216;2023-12-28T08:54:15;9.40;63.00
610;DHT22;292;48.800;9.216;2023-12-28T08:56:42;9.50;63.00
610;DHT22;292;48.800;9.216;2023-12-28T08:59:10;9.50;62.80
610;DHT22;292;48.800;9.216;2023-12-28T09:01:38;9.50;62.80
610;DHT22;292;48.800;9.216;2023-12-28T09:04:05;9.50;62.80
610;DHT22;292;48.800;9.216;2023-12-28T09:06:32;9.50;62.80
610;DHT22;292;48.800;9.216;2023-12-28T09:09:01;9.50;62.70
610;DHT22;292;48.800;9.216;2023-12-28T09:11:29;9.60;62.70
610;DHT22;292;48.800;9.216;2023-12-28T09:13:57;9.60;62.70
610;DHT22;292;48.800;9.216;2023-12-28T09:16:26;9.60;62.70
610;DHT22;292;48.800;9.216;2023-12-28T09:18:54;9.60;62.70
610;DHT22;292;48.800;9.216;2023-12-28T09:21:21;9.60;62.70
610;DHT22;292;48.800;9.216;2023-12-28T09:23:48;9.60;62.70
610;DHT22;292;48.800;9.216;2023-12-28T09:26:15;9.60;62.70
610;DHT22;292;48.800;9.216;2023-12-28T09:28:43;9.60;62.70
610;DHT22;292;48.800;9.216;2023-12-28T09:31:11;9.70;62.70
610;DHT22;292;48.800;9.216;2023-12-28T09:33:39;9.70;62.70
610;DHT22;292;48.800;9.216;2023-12-28T09:36:07;9.70;62.70
610;DHT22;292;48.800;9.216;2023-12-28T09:38:38;9.80;62.80
610;DHT22;292;48.800;9.216;2023-12-28T09:41:13;9.80;62.70
610;DHT22;292;48.800;9.216;2023-12-28T09:43:46;9.80;62.70
610;DHT22;292;48.800;9.216;2023-12-28T09:46:18;9.90;62.70
610;DHT22;292;48.800;9.216;2023-12-28T09:48:50;9.90;62.80
610;DHT22;292;48.800;9.216;2023-12-28T09:51:19;9.90;63.00
610;DHT22;292;48.800;9.216;2023-12-28T09:53:48;9.90;63.10
610;DHT22;292;48.800;9.216;2023-12-28T09:56:16;9.90;63.30
610;DHT22;292;48.800;9.216;2023-12-28T09:58:44;9.90;63.30
610;DHT22;292;48.800;9.216;2023-12-28T10:01:14;9.90;63.40
610;DHT22;292;48.800;9.216;2023-12-28T10:03:41;10.00;63.40
610;DHT22;292;48.800;9.216;2023-12-28T10:06:10;10.00;63.60
610;DHT22;292;48.800;9.216;2023-12-28T10:08:44;10.00;63.70
610;DHT22;292;48.800;9.216;2023-12-28T10:11:12;10.00;63.70
610;DHT22;292;48.800;9.216;2023-12-28T10:13:39;10.10;63.80
610;DHT22;292;48.800;9.216;2023-12-28T10:16:08;10.10;63.70
610;DHT22;292;48.800;9.216;2023-12-28T10:18:36;10.10;63.60
610;DHT22;292;48.800;9.216;2023-12-28T10:21:03;10.10;63.60
610;DHT22;292;48.800;9.216;2023-12-28T10:23:31;10.20;63.40
610;DHT22;292;48.800;9.216;2023-12-28T10:25:59;10.20;63.40
610;DHT22;292;48.800;9.216;2023-12-28T10:28:31;10.20;63.40
610;DHT22;292;48.800;9.216;2023-12-28T10:30:58;10.30;63.60
610;DHT22;292;48.800;9.216;2023-12-28T10:33:26;10.30;63.60
610;DHT22;292;48.800;9.216;2023-12-28T10:35:53;10.40;63.70
610;DHT22;292;48.800;9.216;2023-12-28T10:38:23;10.40;63.70
610;DHT22;292;48.800;9.216;2023-12-28T10:40:54;10.50;63.60
610;DHT22;292;48.800;9.216;2023-12-28T10:43:24;10.50;63.40
610;DHT22;292;48.800;9.216;2023-12-28T10:45:55;10.60;63.40
610;DHT22;292;48.800;9.216;2023-12-28T10:48:29;10.60;63.40
610;DHT22;292;48.800;9.216;2023-12-28T10:51:00;10.60;63.40
610;DHT22;292;48.800;9.216;2023-12-28T10:53:36;10.60;63.40
610;DHT22;292;48.800;9.216;2023-12-28T10:56:14;10.70;63.40
610;DHT22;292;48.800;9.216;2023-12-28T10:58:48;10.70;63.40
610;DHT22;292;48.800;9.216;2023-12-28T11:01:20;10.70;63.40
610;DHT22;292;48.800;9.216;2023-12-28T11:04:07;10.70;63.60
610;DHT22;292;48.800;9.216;2023-12-28T11:06:35;10.80;63.60
610;DHT22;292;48.800;9.216;2023-12-28T11:09:03;10.80;63.70
610;DHT22;292;48.800;9.216;2023-12-28T11:11:33;10.90;63.80
610;DHT22;292;48.800;9.216;2023-12-28T11:14:00;10.90;64.00
610;DHT22;292;48.800;9.216;2023-12-28T11:16:29;11.00;64.00
610;DHT22;292;48.800;9.216;2023-12-28T11:18:57;11.10;64.10
610;DHT22;292;48.800;9.216;2023-12-28T11:21:25;11.10;64.30
610;DHT22;292;48.800;9.216;2023-12-28T11:23:54;11.20;64.40
610;DHT22;292;48.800;9.216;2023-12-28T11:26:22;11.20;64.40
610;DHT22;292;48.800;9.216;2023-12-28T11:29:01;11.30;64.60
610;DHT22;292;48.800;9.216;2023-12-28T11:31:32;11.30;64.70
610;DHT22;292;48.800;9.216;2023-12-28T11:33:59;11.40;64.70
610;DHT22;292;48.800;9.216;2023-12-28T11:36:32;11.40;64.60
610;DHT22;292;48.800;9.216;2023-12-28T11:39:02;11.40;64.60
610;DHT22;292;48.800;9.216;2023-12-28T11:41:31;11.50;64.40
610;DHT22;292;48.800;9.216;2023-12-28T11:44:03;11.50;64.40
610;DHT22;292;48.800;9.216;2023-12-28T11:46:32;11.60;64.70
610;DHT22;292;48.800;9.216;2023-12-28T11:49:05;11.60;64.70
610;DHT22;292;48.800;9.216;2023-12-28T11:51:35;11.70;65.00
610;DHT22;292;48.800;9.216;2023-12-28T11:54:03;11.70;65.10
610;DHT22;292;48.800;9.216;2023-12-28T11:56:32;11.80;65.40
610;DHT22;292;48.800;9.216;2023-12-28T11:58:59;11.90;65.90
610;DHT22;292;48.800;9.216;2023-12-28T12:01:28;12.00;66.00
610;DHT22;292;48.800;9.216;2023-12-28T12:03:55;12.10;66.20
610;DHT22;292;48.800;9.216;2023-12-28T12:06:27;12.20;66.30
610;DHT22;292;48.800;9.216;2023-12-28T12:08:56;12.30;66.40
610;DHT22;292;48.800;9.216;2023-12-28T12:11:24;12.40;66.30
610;DHT22;292;48.800;9.216;2023-12-28T12:13:54;12.50;66.30
610;DHT22;292;48.800;9.216;2023-12-28T12:16:21;12.50;66.20
610;DHT22;292;48.800;9.216;2023-12-28T12:18:50;12.60;66.20
610;DHT22;292;48.800;9.216;2023-12-28T12:21:17;12.60;66.00
610;DHT22;292;48.800;9.216;2023-12-28T12:23:44;12.70;66.00
610;DHT22;292;48.800;9.216;2023-12-28T12:26:11;12.70;65.90
610;DHT22;292;48.800;9.216;2023-12-28T12:28:39;12.80;65.90
610;DHT22;292;48.800;9.216;2023-12-28T12:31:09;12.80;65.70
610;DHT22;292;48.800;9.216;2023-12-28T12:33:36;12.80;65.70
610;DHT22;292;48.800;9.216;2023-12-28T12:36:06;12.90;65.60
610;DHT22;292;48.800;9.216;2023-12-28T12:38:33;12.90;65.70
610;DHT22;292;48.800;9.216;2023-12-28T12:41:00;12.90;65.60
610;DHT22;292;48.800;9.216;2023-12-28T12:43:28;13.00;65.70
610;DHT22;292;48.800;9.216;2023-12-28T12:45:55;13.00;65.70
610;DHT22;292;48.800;9.216;2023-12-28T12:48:23;13.00;65.70
610;DHT22;292;48.800;9.216;2023-12-28T12:50:50;13.10;65.40
610;DHT22;292;48.800;9.216;2023-12-28T12:53:19;13.10;65.30
610;DHT22;292;48.800;9.216;2023-12-28T12:55:46;13.20;65.10
610;DHT22;292;48.800;9.216;2023-12-28T12:58:14;13.20;65.00
610;DHT22;292;48.800;9.216;2023-12-28T13:00:44;13.30;64.90
610;DHT22;292;48.800;9.216;2023-12-28T13:03:10;13.30;64.90
610;DHT22;292;48.800;9.216;2023-12-28T13:05:37;13.30;65.00
610;DHT22;292;48.800;9.216;2023-12-28T13:08:05;13.30;65.00
610;DHT22;292;48.800;9.216;2023-12-28T13:10:34;13.30;65.10
610;DHT22;292;48.800;9.216;2023-12-28T13:13:02;13.30;65.00
610;DHT22;292;48.800;9.216;2023-12-28T13:15:29;13.30;64.90
610;DHT22;292;48.800;9.216;2023-12-28T13:17:58;13.30;64.90
610;DHT22;292;48.800;9.216;2023-12-28T13:20:25;13.30;64.90
610;DHT22;292;48.800;9.216;2023-12-28T13:22:54;13.20;64.70
610;DHT22;292;48.800;9.216;2023-12-28T13:25:21;13.20;64.40
610;DHT22;292;48.800;9.216;2023-12-28T13:27:55;13.20;64.00
610;DHT22;292;48.800;9.216;2023-12-28T13:30:37;13.20;63.70
610;DHT22;292;48.800;9.216;2023-12-28T13:33:10;13.20;63.40
610;DHT22;292;48.800;9.216;2023-12-28T13:35:38;13.10;63.30
610;DHT22;292;48.800;9.216;2023-12-28T13:38:05;13.10;63.30
610;DHT22;292;48.800;9.216;2023-12-28T13:40:32;13.00;63.30
610;DHT22;292;48.800;9.216;2023-12-28T13:43:00;13.00;63.30
610;DHT22;292;48.800;9.216;2023-12-28T13:45:27;13.00;63.60
610;DHT22;292;48.800;9.216;2023-12-28T13:47:54;13.00;63.70
610;DHT22;292;48.800;9.216;2023-12-28T13:50:21;13.00;64.00
610;DHT22;292;48.800;9.216;2023-12-28T13:52:48;13.00;64.30
610;DHT22;292;48.800;9.216;2023-12-28T13:55:15;13.00;64.70
610;DHT22;292;48.800;9.216;2023-12-28T13:57:42;13.00;65.00
610;DHT22;292;48.800;9.216;2023-12-28T14:00:13;13.00;65.10
610;DHT22;292;48.800;9.216;2023-12-28T14:02:40;13.10;65.10
610;DHT22;292;48.800;9.216;2023-12-28T14:05:07;13.10;65.10
610;DHT22;292;48.800;9.216;2023-12-28T14:07:34;13.10;65.10
610;DHT22;292;48.800;9.216;2023-12-28T14:10:01;13.10;65.30
610;DHT22;292;48.800;9.216;2023-12-28T14:12:28;13.10;65.60
610;DHT22;292;48.800;9.216;2023-12-28T14:14:55;13.20;65.90
610;DHT22;292;48.800;9.216;2023-12-28T14:17:25;13.20;66.30
610;DHT22;292;48.800;9.216;2023-12-28T14:19:52;13.20;66.40
610;DHT22;292;48.800;9.216;2023-12-28T14:22:20;13.20;66.70
610;DHT22;292;48.800;9.216;2023-12-28T14:24:49;13.30;67.00
610;DHT22;292;48.800;9.216;2023-12-28T14:27:19;13.30;67.00
610;DHT22;292;48.800;9.216;2023-12-28T14:29:47;13.30;67.20
610;DHT22;292;48.800;9.216;2023-12-28T14:32:17;13.40;67.30
610;DHT22;292;48.800;9.216;2023-12-28T14:34:46;13.40;67.30
610;DHT22;292;48.800;9.216;2023-12-28T14:37:13;13.40;67.70
610;DHT22;292;48.800;9.216;2023-12-28T14:39:41;13.40;67.90
610;DHT22;292;48.800;9.216;2023-12-28T14:42:08;13.40;68.00
610;DHT22;292;48.800;9.216;2023-12-28T14:44:36;13.30;68.30
610;DHT22;292;48.800;9.216;2023-12-28T14:47:03;13.40;68.50
610;DHT22;292;48.800;9.216;2023-12-28T14:49:31;13.40;68.30
610;DHT22;292;48.800;9.216;2023-12-28T14:51:59;13.40;68.30
610;DHT22;292;48.800;9.216;2023-12-28T14:54:27;13.40;68.20
610;DHT22;292;48.800;9.216;2023-12-28T14:56:59;13.40;68.20
610;DHT22;292;48.800;9.216;2023-12-28T14:59:26;13.30;68.20
610;DHT22;292;48.800;9.216;2023-12-28T15:01:54;13.40;68.20
610;DHT22;292;48.800;9.216;2023-12-28T15:04:21;13.40;68.20
610;DHT22;292;48.800;9.216;2023-12-28T15:06:48;13.30;68.20
610;DHT22;292;48.800;9.216;2023-12-28T15:09:16;13.40;68.30
610;DHT22;292;48.800;9.216;2023-12-28T15:11:45;13.40;68.50
610;DHT22;292;48.800;9.216;2023-12-28T15:14:13;13.40;68.50
610;DHT22;292;48.800;9.216;2023-12-28T15:16:40;13.40;68.50
610;DHT22;292;48.800;9.216;2023-12-28T15:19:08;13.40;68.50
610;DHT22;292;48.800;9.216;2023-12-28T15:21:36;13.40;68.50
610;DHT22;292;48.800;9.216;2023-12-28T15:24:04;13.40;68.00
610;DHT22;292;48.800;9.216;2023-12-28T15:26:33;13.40;68.00
610;DHT22;292;48.800;9.216;2023-12-28T15:29:00;13.40;67.90
610;DHT22;292;48.800;9.216;2023-12-28T15:31:27;13.40;67.90
610;DHT22;292;48.800;9.216;2023-12-28T15:33:56;13.40;67.60
610;DHT22;292;48.800;9.216;2023-12-28T15:36:23;13.40;67.50
610;DHT22;292;48.800;9.216;2023-12-28T15:38:50;13.40;67.50
610;DHT22;292;48.800;9.216;2023-12-28T15:41:17;13.30;67.50
610;DHT22;292;48.800;9.216;2023-12-28T15:43:46;13.30;67.60
610;DHT22;292;48.800;9.216;2023-12-28T15:46:13;13.30;67.60
610;DHT22;292;48.800;9.216;2023-12-28T15:48:40;13.30;67.50
610;DHT22;292;48.800;9.216;2023-12-28T15:51:08;13.30;67.30
610;DHT22;292;48.800;9.216;2023-12-28T15:53:34;13.30;67.30
610;DHT22;292;48.800;9.216;2023-12-28T15:56:02;13.30;67.20
610;DHT22;292;48.800;9.216;2023-12-28T15:58:29;13.30;67.30
610;DHT22;292;48.800;9.216;2023-12-28T16:00:57;13.30;67.20
610;DHT22;292;48.800;9.216;2023-12-28T16:03:24;13.30;67.20
610;DHT22;292;48.800;9.216;2023-12-28T16:05:51;13.30;67.00
610;DHT22;292;48.800;9.216;2023-12-28T16:08:19;13.20;66.70
610;DHT22;292;48.800;9.216;2023-12-28T16:10:44;13.20;66.70
610;DHT22;292;48.800;9.216;2023-12-28T16:13:11;13.20;66.70
610;DHT22;292;48.800;9.216;2023-12-28T16:15:39;13.20;67.00
610;DHT22;292;48.800;9.216;2023-12-28T16:18:10;13.10;67.20
610;DHT22;292;48.800;9.216;2023-12-28T16:20:38;13.10;67.30
610;DHT22;292;48.800;9.216;2023-12-28T16:23:06;13.10;67.30
610;DHT22;292;48.800;9.216;2023-12-28T16:25:34;13.10;67.30
610;DHT22;292;48.800;9.216;2023-12-28T16:28:01;13.10;67.20
610;DHT22;292;48.800;9.216;2023-12-28T16:30:28;13.10;67.20
610;DHT22;292;48.800;9.216;2023-12-28T16:32:55;13.00;67.20
610;DHT22;292;48.800;9.216;2023-12-28T16:35:24;13.00;67.30
610;DHT22;292;48.800;9.216;2023-12-28T16:37:51;13.00;67.30
610;DHT22;292;48.800;9.216;2023-12-28T16:40:18;13.00;67.30
610;DHT22;292;48.800;9.216;2023-12-28T16:42:45;13.00;67.30
610;DHT22;292;48.800;9.216;2023-12-28T16:45:12;13.00;67.20
610;DHT22;292;48.800;9.216;2023-12-28T16:47:41;13.00;67.30
610;DHT22;292;48.800;9.216;2023-12-28T16:50:08;13.00;67.50